Sunday, November 19, 2017, 5:34 AM EST
Back to Local

KNUI, Knui Webster Field Annex

Location: Saint Inigoes, MD, United States Lat: 38.15
Local Time: 5:34 AM EST (10:34 GMT) Lon: -76.417
Time Zone: US/Eastern Elev: 19 ft

Show me the last for .
Show Decoded

2017-11-18 20:53 METAR KNUI 190153Z AUTO 20015G26KT 10SM CLR 17/11 A2958 RMK AO2 PK WND
                 19026/0149 SLP015 T01720106 =
2017-11-18 19:53 METAR KNUI 190053Z AUTO 19015G22KT 10SM CLR 17/11 A2959 RMK AO2 SLP019 T01670106
                 =
2017-11-18 18:53 METAR KNUI 182353Z AUTO 19014G20KT 10SM CLR 16/09 A2962 RMK AO2 SLP029 T01610094
                 10161 20139 58018 =
2017-11-18 17:53 METAR KNUI 182253Z AUTO 19010KT 10SM CLR 15/07 A2965 RMK AO2 SLP040 T01500072 =
2017-11-18 16:53 METAR KNUI 182153Z AUTO 18009KT 9SM CLR 14/06 A2966 RMK AO2 SLP042 T01390061 =
2017-11-18 15:53 METAR KNUI 182053Z AUTO 18009KT 9SM CLR 14/04 A2967 RMK AO2 SLP048 T01390044
                 57028 =
2017-11-18 14:53 METAR KNUI 181953Z AUTO 19011KT 9SM CLR 14/04 A2970 RMK AO2 SLP056 T01440044 =
2017-11-18 13:53 METAR KNUI 181853Z AUTO 19011G16KT 9SM CLR 14/05 A2973 RMK AO2 SLP068 T01390050
                 =
2017-11-18 07:53 METAR KNUI 181253Z AUTO 18011G18KT 9SM CLR 07/02 A2997 RMK AO2 SLP147 T00720022
                 =
2017-11-18 06:53 METAR KNUI 181153Z AUTO 19011KT 9SM CLR 07/02 A2999 RMK AO2 SLP155 T00670017
                 10072 20011 58016 =
2017-11-18 05:53 METAR KNUI 181053Z AUTO 18009KT 10SM CLR 07/02 A3001 RMK AO2 SLP161 T00720017 =

Support USWX by starting your Amazon purchase here.